createdAt,value
2022-10-18T00:00:50.365Z,5.03
2022-10-18T00:03:17.304Z,5.43
2022-10-18T00:05:44.313Z,4.95
2022-10-18T00:08:11.260Z,5.72
2022-10-18T00:10:38.176Z,4.53
2022-10-18T00:13:05.112Z,4.40
2022-10-18T00:15:32.072Z,4.70
2022-10-18T00:17:59.064Z,4.63
2022-10-18T00:20:26.438Z,3.90
2022-10-18T00:22:53.350Z,3.40
2022-10-18T00:25:20.275Z,3.35
2022-10-18T00:27:47.235Z,3.58
2022-10-18T00:30:14.563Z,3.28
2022-10-18T00:32:42.593Z,3.33
2022-10-18T00:35:09.938Z,3.45
2022-10-18T00:37:36.808Z,3.30
2022-10-18T00:40:05.288Z,2.90
2022-10-18T00:42:35.095Z,3.22
2022-10-18T00:45:14.748Z,4.07
2022-10-18T00:47:44.010Z,3.42
2022-10-18T00:50:11.556Z,3.20
2022-10-18T00:52:42.402Z,2.97
2022-10-18T00:55:10.498Z,3.00
2022-10-18T00:57:39.390Z,2.90
2022-10-18T01:00:09.967Z,2.92
2022-10-18T01:02:38.136Z,2.60
2022-10-18T01:05:06.008Z,3.03
2022-10-18T01:07:47.868Z,2.70
2022-10-18T01:10:46.727Z,2.47
2022-10-18T01:13:35.744Z,2.70
2022-10-18T01:16:08.755Z,3.10
2022-10-18T01:18:48.914Z,2.72
2022-10-18T01:21:45.575Z,2.80
2022-10-18T01:24:54.958Z,2.58
2022-10-18T01:27:35.655Z,3.00
2022-10-18T01:30:39.658Z,2.40
2022-10-18T01:33:18.428Z,2.95
2022-10-18T01:35:52.176Z,2.25
2022-10-18T01:38:21.571Z,2.40
2022-10-18T01:40:50.818Z,2.42
2022-10-18T01:43:20.079Z,2.40
2022-10-18T01:45:47.780Z,2.50
2022-10-18T01:48:15.691Z,2.95
2022-10-18T01:50:42.796Z,2.67
2022-10-18T01:53:24.265Z,2.72
2022-10-18T01:56:13.340Z,2.95
2022-10-18T01:59:06.326Z,3.15
2022-10-18T02:01:39.098Z,3.13
2022-10-18T02:04:32.116Z,3.42
2022-10-18T02:07:26.874Z,3.42
2022-10-18T02:10:09.359Z,3.80
2022-10-18T02:12:41.020Z,3.70
2022-10-18T02:15:10.116Z,3.67
2022-10-18T02:17:39.418Z,3.72
2022-10-18T02:20:08.949Z,3.65
2022-10-18T02:22:37.802Z,3.10
2022-10-18T02:25:10.970Z,3.08
2022-10-18T02:27:38.232Z,2.53
2022-10-18T02:30:06.137Z,2.95
2022-10-18T02:32:39.782Z,2.60
2022-10-18T02:35:45.857Z,2.45
2022-10-18T02:38:15.564Z,2.50
2022-10-18T02:40:42.756Z,2.60
2022-10-18T02:43:09.633Z,2.45
2022-10-18T02:45:36.713Z,2.58
2022-10-18T02:48:03.638Z,2.40
2022-10-18T02:50:30.566Z,2.15
2022-10-18T02:52:57.435Z,2.65
2022-10-18T02:55:24.399Z,2.65
2022-10-18T02:57:51.299Z,2.17
2022-10-18T03:00:18.245Z,2.45
2022-10-18T03:02:45.193Z,2.20
2022-10-18T03:05:12.035Z,2.65
2022-10-18T03:07:38.920Z,2.50
2022-10-18T03:10:06.285Z,2.35
2022-10-18T03:12:33.130Z,1.90
2022-10-18T03:14:59.959Z,2.53
2022-10-18T03:17:27.070Z,2.53
2022-10-18T03:19:54.013Z,2.55
2022-10-18T03:22:20.914Z,2.70
2022-10-18T03:24:47.934Z,2.17
2022-10-18T03:27:14.781Z,2.20
2022-10-18T03:29:41.719Z,2.50
2022-10-18T03:32:08.692Z,2.45
2022-10-18T03:34:35.551Z,2.53
2022-10-18T03:37:04.788Z,2.75
2022-10-18T03:39:32.430Z,2.40
2022-10-18T03:41:59.302Z,2.60
2022-10-18T03:44:26.208Z,2.15
2022-10-18T03:46:53.091Z,2.85
2022-10-18T03:49:20.121Z,2.42
2022-10-18T03:51:47.019Z,2.25
2022-10-18T03:54:13.962Z,2.60
2022-10-18T03:56:40.795Z,2.70
2022-10-18T03:59:07.831Z,2.50
2022-10-18T04:01:34.743Z,2.17
2022-10-18T04:04:01.784Z,2.30
2022-10-18T04:06:28.757Z,2.80
2022-10-18T04:08:56.131Z,2.60
2022-10-18T04:11:23.005Z,2.35
2022-10-18T04:13:50.466Z,2.50
2022-10-18T04:16:17.376Z,2.70
2022-10-18T04:18:44.230Z,2.40
2022-10-18T04:21:11.108Z,2.38
2022-10-18T04:23:38.888Z,2.47
2022-10-18T04:26:06.719Z,2.47
2022-10-18T04:28:34.887Z,2.50
2022-10-18T04:31:01.867Z,2.50
2022-10-18T04:33:28.743Z,2.42
2022-10-18T04:35:55.648Z,2.13
2022-10-18T04:38:22.575Z,2.42
2022-10-18T04:40:49.914Z,2.60
2022-10-18T04:43:16.835Z,2.70
2022-10-18T04:45:46.379Z,2.50
2022-10-18T04:48:13.363Z,2.50
2022-10-18T04:50:40.840Z,2.47
2022-10-18T04:53:07.766Z,2.58
2022-10-18T04:55:34.841Z,2.13
2022-10-18T04:58:01.734Z,2.08
2022-10-18T05:00:28.639Z,2.38
2022-10-18T05:02:58.679Z,2.75
2022-10-18T05:05:43.312Z,2.47
2022-10-18T05:08:13.135Z,2.75
2022-10-18T05:10:40.007Z,2.70
2022-10-18T05:13:07.150Z,3.83
2022-10-18T05:15:34.076Z,2.63
2022-10-18T05:18:00.926Z,2.70
2022-10-18T05:20:27.910Z,2.83
2022-10-18T05:22:54.830Z,2.47
2022-10-18T05:25:21.691Z,2.85
2022-10-18T05:27:48.742Z,2.58
2022-10-18T05:30:15.843Z,2.70
2022-10-18T05:32:42.738Z,2.60
2022-10-18T05:35:09.768Z,3.33
2022-10-18T05:37:36.659Z,3.20
2022-10-18T05:40:04.119Z,3.00
2022-10-18T05:42:31.232Z,3.60
2022-10-18T05:44:58.275Z,2.78
2022-10-18T05:47:25.221Z,2.88
2022-10-18T05:49:52.125Z,2.97
2022-10-18T05:52:19.058Z,3.30
2022-10-18T05:54:45.974Z,2.80
2022-10-18T05:57:12.854Z,2.65
2022-10-18T05:59:39.710Z,3.08
2022-10-18T06:02:07.041Z,3.13
2022-10-18T06:04:34.927Z,3.13
2022-10-18T06:07:01.836Z,2.85
2022-10-18T06:09:30.720Z,3.05
2022-10-18T06:11:57.830Z,3.50
2022-10-18T06:14:24.771Z,3.25
2022-10-18T06:16:51.718Z,3.80
2022-10-18T06:19:18.667Z,3.50
2022-10-18T06:21:45.595Z,3.00
2022-10-18T06:24:12.473Z,3.15
2022-10-18T06:30:26.707Z,3.05
2022-10-18T06:32:53.627Z,3.10
2022-10-18T06:35:20.516Z,3.00
2022-10-18T06:37:47.504Z,3.65
2022-10-18T06:40:14.424Z,2.83
2022-10-18T06:42:41.411Z,2.95
2022-10-18T06:45:08.954Z,2.72
2022-10-18T06:47:35.846Z,3.53
2022-10-18T06:50:02.735Z,3.40
2022-10-18T06:52:29.807Z,2.80
2022-10-18T06:54:58.279Z,3.55
2022-10-18T07:01:15.803Z,4.18
2022-10-18T07:03:43.408Z,3.75
2022-10-18T07:06:12.776Z,5.30
2022-10-18T07:08:40.251Z,3.70
2022-10-18T07:11:08.104Z,3.60
2022-10-18T07:13:35.356Z,3.03
2022-10-18T07:16:06.062Z,3.00
2022-10-18T07:18:34.630Z,3.03
2022-10-18T07:21:03.796Z,3.45
2022-10-18T07:23:33.839Z,3.30
2022-10-18T07:26:01.887Z,3.50
2022-10-18T07:28:29.704Z,2.67
2022-10-18T07:30:57.008Z,2.95
2022-10-18T07:33:25.939Z,2.60
2022-10-18T07:35:52.879Z,2.60
2022-10-18T07:38:19.788Z,2.35
2022-10-18T07:44:33.436Z,2.60
2022-10-18T07:47:00.358Z,3.40
2022-10-18T07:49:27.239Z,2.80
2022-10-18T07:51:54.148Z,2.65
2022-10-18T07:54:22.456Z,2.80
2022-10-18T07:56:49.298Z,2.60
2022-10-18T07:59:16.177Z,2.60
2022-10-18T08:01:43.184Z,3.47
2022-10-18T08:04:16.109Z,3.13
2022-10-18T08:06:43.626Z,2.60
2022-10-18T08:09:10.588Z,3.10
2022-10-18T08:11:37.600Z,2.35
2022-10-18T08:14:04.464Z,2.25
2022-10-18T08:16:34.354Z,2.20
2022-10-18T08:19:01.299Z,2.58
2022-10-18T08:21:28.211Z,2.30
2022-10-18T08:23:55.363Z,3.80
2022-10-18T08:26:23.525Z,2.50
2022-10-18T08:28:54.365Z,2.13
2022-10-18T08:31:30.993Z,2.28
2022-10-18T08:33:58.117Z,2.40
2022-10-18T08:36:25.352Z,2.35
2022-10-18T08:38:52.401Z,2.20
2022-10-18T08:41:26.230Z,2.35
2022-10-18T08:44:19.600Z,2.13
2022-10-18T08:46:49.349Z,2.35
2022-10-18T08:49:28.590Z,2.40
2022-10-18T08:51:57.474Z,2.58
2022-10-18T08:54:30.279Z,2.28
2022-10-18T08:57:00.901Z,2.22
2022-10-18T08:59:37.890Z,2.28
2022-10-18T09:02:25.946Z,2.00
2022-10-18T09:05:08.619Z,2.67
2022-10-18T09:07:54.246Z,1.98
2022-10-18T09:10:46.051Z,2.40
2022-10-18T09:13:27.570Z,2.10
2022-10-18T09:16:04.925Z,2.22
2022-10-18T09:18:54.912Z,2.40
2022-10-18T09:21:36.838Z,2.20
2022-10-18T09:24:13.894Z,2.28
2022-10-18T09:26:55.254Z,2.15
2022-10-18T09:29:33.855Z,2.83
2022-10-18T09:32:25.629Z,1.92
2022-10-18T09:34:54.482Z,1.58
2022-10-18T09:37:23.050Z,2.10
2022-10-18T09:39:51.933Z,1.90
2022-10-18T09:42:29.550Z,2.10
2022-10-18T09:45:16.733Z,2.67
2022-10-18T09:48:08.655Z,2.47
2022-10-18T09:50:59.402Z,2.30
2022-10-18T09:53:47.535Z,2.35
2022-10-18T09:56:41.732Z,2.10
2022-10-18T09:59:53.010Z,2.00
2022-10-18T10:02:24.002Z,2.33
2022-10-18T10:04:51.934Z,1.85
2022-10-18T10:07:24.016Z,1.90
2022-10-18T10:10:19.928Z,1.67
2022-10-18T10:12:47.086Z,1.92
2022-10-18T10:15:23.282Z,1.95
2022-10-18T10:18:28.322Z,1.67
2022-10-18T10:21:01.893Z,1.60
2022-10-18T10:23:55.723Z,1.88
2022-10-18T10:26:24.309Z,2.00
2022-10-18T10:28:51.799Z,1.85
2022-10-18T10:31:24.535Z,2.63
2022-10-18T10:34:03.302Z,1.80
2022-10-18T10:36:31.402Z,2.05
2022-10-18T10:39:13.164Z,1.80
2022-10-18T10:41:41.549Z,2.28
2022-10-18T10:44:19.948Z,1.98
2022-10-18T10:46:48.639Z,2.00
2022-10-18T10:49:41.216Z,1.85
2022-10-18T10:52:27.221Z,2.08
2022-10-18T10:55:23.274Z,2.00
2022-10-18T10:57:52.965Z,1.73
2022-10-18T11:00:40.265Z,2.05
2022-10-18T11:03:29.614Z,1.88
2022-10-18T11:06:02.024Z,1.65
2022-10-18T11:08:36.084Z,2.13
2022-10-18T11:11:41.997Z,2.05
2022-10-18T11:14:29.591Z,1.90
2022-10-18T11:17:08.578Z,1.92
2022-10-18T11:19:53.553Z,2.55
2022-10-18T11:22:24.360Z,2.45
2022-10-18T11:24:51.507Z,1.83
2022-10-18T11:27:42.964Z,1.80
2022-10-18T11:30:15.571Z,1.80
2022-10-18T11:32:54.631Z,1.70
2022-10-18T11:35:50.672Z,1.88
2022-10-18T11:38:17.522Z,1.65
2022-10-18T11:41:02.004Z,1.92
2022-10-18T11:46:32.481Z,2.03
2022-10-18T11:49:13.662Z,2.13
2022-10-18T11:52:07.339Z,1.90
2022-10-18T12:00:18.034Z,1.67
2022-10-18T12:03:15.505Z,2.60
2022-10-18T12:05:46.116Z,3.13
2022-10-18T12:08:20.803Z,2.63
2022-10-18T12:11:07.983Z,2.25
2022-10-18T12:13:43.326Z,3.40
2022-10-18T12:16:12.119Z,2.58
2022-10-18T12:19:01.487Z,2.30
2022-10-18T12:21:32.869Z,2.53
2022-10-18T12:24:11.147Z,2.42
2022-10-18T12:26:38.551Z,3.28
2022-10-18T12:29:27.004Z,4.60
2022-10-18T12:32:04.074Z,2.60
2022-10-18T12:34:43.113Z,2.60
2022-10-18T12:37:10.150Z,2.75
2022-10-18T12:40:08.711Z,2.70
2022-10-18T12:42:42.861Z,2.75
2022-10-18T12:45:26.740Z,2.00
2022-10-18T12:47:55.013Z,2.22
2022-10-18T12:50:37.451Z,2.47
2022-10-18T12:53:10.279Z,2.15
2022-10-18T12:55:39.973Z,2.15
2022-10-18T12:58:22.625Z,2.50
2022-10-18T13:00:49.425Z,2.28
2022-10-18T13:03:19.497Z,3.38
2022-10-18T13:05:54.846Z,2.60
2022-10-18T13:08:31.649Z,2.60
2022-10-18T13:11:10.411Z,2.80
2022-10-18T13:14:01.610Z,2.25
2022-10-18T13:16:56.319Z,2.88
2022-10-18T13:19:42.086Z,4.57
2022-10-18T13:22:24.335Z,3.88
2022-10-18T13:25:05.924Z,2.80
2022-10-18T13:28:01.858Z,3.05
2022-10-18T13:31:06.959Z,2.92
2022-10-18T13:33:39.568Z,3.60
2022-10-18T13:36:22.747Z,2.60
2022-10-18T13:38:57.795Z,3.83
